sensor_id;sensor_type;location;lat;lon;timestamp;pressure;altitude;pressure_sealevel;temperature;humidity
74161;BME280;62512;-46.434;168.382;2022-08-19T00:00:52;101460;;;unknown;54.33
74161;BME280;62512;-46.434;168.382;2022-08-19T00:01:52;101457;;;unknown;54.71
74161;BME280;62512;-46.434;168.382;2022-08-19T00:02:52;101456;;;unknown;54.07
74161;BME280;62512;-46.434;168.382;2022-08-19T00:03:52;101453;;;unknown;53.44
74161;BME280;62512;-46.434;168.382;2022-08-19T00:04:52;101449;;;unknown;54.12
74161;BME280;62512;-46.434;168.382;2022-08-19T00:05:52;101447;;;unknown;53.79
74161;BME280;62512;-46.434;168.382;2022-08-19T00:06:52;101442;;;unknown;54.50
74161;BME280;62512;-46.434;168.382;2022-08-19T00:07:52;101442;;;unknown;54.04
74161;BME280;62512;-46.434;168.382;2022-08-19T00:08:52;101438;;;unknown;53.63
74161;BME280;62512;-46.434;168.382;2022-08-19T00:09:52;101439;;;unknown;53.10
74161;BME280;62512;-46.434;168.382;2022-08-19T00:10:52;101439;;;unknown;53.14
74161;BME280;62512;-46.434;168.382;2022-08-19T00:11:52;101439;;;unknown;53.35
74161;BME280;62512;-46.434;168.382;2022-08-19T00:12:52;101440;;;unknown;52.92
74161;BME280;62512;-46.434;168.382;2022-08-19T00:14:52;101442;;;unknown;52.81
74161;BME280;62512;-46.434;168.382;2022-08-19T00:15:52;101440;;;unknown;52.01
74161;BME280;62512;-46.434;168.382;2022-08-19T00:16:52;101443;;;unknown;52.37
74161;BME280;62512;-46.434;168.382;2022-08-19T00:17:52;101440;;;unknown;51.60
74161;BME280;62512;-46.434;168.382;2022-08-19T00:18:52;101437;;;unknown;52.00
74161;BME280;62512;-46.434;168.382;2022-08-19T00:19:52;101439;;;unknown;51.96
74161;BME280;62512;-46.434;168.382;2022-08-19T00:20:52;101436;;;unknown;51.95
74161;BME280;62512;-46.434;168.382;2022-08-19T00:21:52;101439;;;unknown;51.77
74161;BME280;62512;-46.434;168.382;2022-08-19T00:23:52;101438;;;unknown;51.36
74161;BME280;62512;-46.434;168.382;2022-08-19T00:24:52;101438;;;unknown;51.59
74161;BME280;62512;-46.434;168.382;2022-08-19T00:25:52;101440;;;unknown;51.58
74161;BME280;62512;-46.434;168.382;2022-08-19T00:26:52;101446;;;unknown;51.31
74161;BME280;62512;-46.434;168.382;2022-08-19T00:27:52;101442;;;unknown;51.00
74161;BME280;62512;-46.434;168.382;2022-08-19T00:29:52;101440;;;unknown;50.22
74161;BME280;62512;-46.434;168.382;2022-08-19T00:30:52;101436;;;unknown;50.18
74161;BME280;62512;-46.434;168.382;2022-08-19T00:31:52;101433;;;unknown;50.61
74161;BME280;62512;-46.434;168.382;2022-08-19T00:32:52;101437;;;unknown;51.32
74161;BME280;62512;-46.434;168.382;2022-08-19T00:33:52;101435;;;unknown;50.18
74161;BME280;62512;-46.434;168.382;2022-08-19T00:34:52;101435;;;unknown;49.79
74161;BME280;62512;-46.434;168.382;2022-08-19T00:35:52;101436;;;unknown;49.38
74161;BME280;62512;-46.434;168.382;2022-08-19T00:36:52;101438;;;unknown;49.33
74161;BME280;62512;-46.434;168.382;2022-08-19T00:37:52;101440;;;unknown;49.49
74161;BME280;62512;-46.434;168.382;2022-08-19T00:38:52;101441;;;unknown;52.06
74161;BME280;62512;-46.434;168.382;2022-08-19T00:39:52;101434;;;unknown;53.18
74161;BME280;62512;-46.434;168.382;2022-08-19T00:40:52;101435;;;unknown;53.96
74161;BME280;62512;-46.434;168.382;2022-08-19T00:41:52;101435;;;unknown;54.27
74161;BME280;62512;-46.434;168.382;2022-08-19T00:42:52;101437;;;unknown;54.23
74161;BME280;62512;-46.434;168.382;2022-08-19T00:44:00;101433;;;unknown;54.81
74161;BME280;62512;-46.434;168.382;2022-08-19T00:44:52;101431;;;unknown;55.10
74161;BME280;62512;-46.434;168.382;2022-08-19T00:45:52;101433;;;unknown;55.29
74161;BME280;62512;-46.434;168.382;2022-08-19T00:46:52;101428;;;unknown;55.20
74161;BME280;62512;-46.434;168.382;2022-08-19T00:48:52;101429;;;unknown;54.78
74161;BME280;62512;-46.434;168.382;2022-08-19T00:49:54;101422;;;unknown;54.58
74161;BME280;62512;-46.434;168.382;2022-08-19T00:50:52;101419;;;unknown;54.93
74161;BME280;62512;-46.434;168.382;2022-08-19T00:51:53;101417;;;unknown;54.79
74161;BME280;62512;-46.434;168.382;2022-08-19T00:53:52;101413;;;unknown;54.52
74161;BME280;62512;-46.434;168.382;2022-08-19T00:54:52;101412;;;unknown;54.29
74161;BME280;62512;-46.434;168.382;2022-08-19T00:55:53;101408;;;unknown;54.46
74161;BME280;62512;-46.434;168.382;2022-08-19T00:56:52;101408;;;unknown;54.39
74161;BME280;62512;-46.434;168.382;2022-08-19T00:57:53;101406;;;unknown;54.29
74161;BME280;62512;-46.434;168.382;2022-08-19T00:58:52;101401;;;unknown;54.18
74161;BME280;62512;-46.434;168.382;2022-08-19T00:59:52;101400;;;unknown;54.45
74161;BME280;62512;-46.434;168.382;2022-08-19T01:01:52;101405;;;unknown;54.08
74161;BME280;62512;-46.434;168.382;2022-08-19T01:02:52;101408;;;unknown;54.05
74161;BME280;62512;-46.434;168.382;2022-08-19T01:03:52;101415;;;unknown;53.59
74161;BME280;62512;-46.434;168.382;2022-08-19T01:04:52;101416;;;unknown;53.60
74161;BME280;62512;-46.434;168.382;2022-08-19T01:05:53;101415;;;unknown;54.08
74161;BME280;62512;-46.434;168.382;2022-08-19T01:06:52;101415;;;unknown;54.08
74161;BME280;62512;-46.434;168.382;2022-08-19T01:07:52;101416;;;unknown;54.02
74161;BME280;62512;-46.434;168.382;2022-08-19T01:08:52;101416;;;unknown;54.18
74161;BME280;62512;-46.434;168.382;2022-08-19T01:10:52;101410;;;unknown;54.57
74161;BME280;62512;-46.434;168.382;2022-08-19T01:11:52;101418;;;unknown;54.70
74161;BME280;62512;-46.434;168.382;2022-08-19T01:12:52;101411;;;unknown;55.07
74161;BME280;62512;-46.434;168.382;2022-08-19T01:13:52;101416;;;unknown;55.09
74161;BME280;62512;-46.434;168.382;2022-08-19T01:14:52;101414;;;unknown;55.50
74161;BME280;62512;-46.434;168.382;2022-08-19T01:15:53;101420;;;unknown;55.19
74161;BME280;62512;-46.434;168.382;2022-08-19T01:16:52;101419;;;unknown;55.45
74161;BME280;62512;-46.434;168.382;2022-08-19T01:17:52;101418;;;unknown;55.66
74161;BME280;62512;-46.434;168.382;2022-08-19T01:18:52;101417;;;unknown;55.05
74161;BME280;62512;-46.434;168.382;2022-08-19T01:19:52;101422;;;unknown;55.25
74161;BME280;62512;-46.434;168.382;2022-08-19T01:20:52;101422;;;unknown;55.25
74161;BME280;62512;-46.434;168.382;2022-08-19T01:21:53;101424;;;unknown;54.72
74161;BME280;62512;-46.434;168.382;2022-08-19T01:22:53;101425;;;unknown;54.74
74161;BME280;62512;-46.434;168.382;2022-08-19T01:23:52;101424;;;unknown;55.08
74161;BME280;62512;-46.434;168.382;2022-08-19T01:24:52;101425;;;unknown;55.24
74161;BME280;62512;-46.434;168.382;2022-08-19T01:25:52;101417;;;unknown;54.90
74161;BME280;62512;-46.434;168.382;2022-08-19T01:26:52;101417;;;unknown;55.03
74161;BME280;62512;-46.434;168.382;2022-08-19T01:27:52;101416;;;unknown;55.42
74161;BME280;62512;-46.434;168.382;2022-08-19T01:28:56;101420;;;unknown;55.78
74161;BME280;62512;-46.434;168.382;2022-08-19T01:29:52;101420;;;unknown;55.72
74161;BME280;62512;-46.434;168.382;2022-08-19T01:30:52;101415;;;unknown;55.84
74161;BME280;62512;-46.434;168.382;2022-08-19T01:31:52;101415;;;unknown;56.18
74161;BME280;62512;-46.434;168.382;2022-08-19T01:33:52;101411;;;unknown;56.58
74161;BME280;62512;-46.434;168.382;2022-08-19T01:34:52;101410;;;unknown;56.61
74161;BME280;62512;-46.434;168.382;2022-08-19T01:35:52;101412;;;unknown;56.76
74161;BME280;62512;-46.434;168.382;2022-08-19T01:36:52;101413;;;unknown;57.03
74161;BME280;62512;-46.434;168.382;2022-08-19T01:37:53;101412;;;unknown;57.18
74161;BME280;62512;-46.434;168.382;2022-08-19T01:38:52;101410;;;unknown;57.07
74161;BME280;62512;-46.434;168.382;2022-08-19T01:39:52;101404;;;unknown;56.66
74161;BME280;62512;-46.434;168.382;2022-08-19T01:40:52;101397;;;unknown;56.52
74161;BME280;62512;-46.434;168.382;2022-08-19T01:41:52;101402;;;unknown;56.56
74161;BME280;62512;-46.434;168.382;2022-08-19T01:42:52;101402;;;unknown;56.56
74161;BME280;62512;-46.434;168.382;2022-08-19T01:43:52;101404;;;unknown;56.62
74161;BME280;62512;-46.434;168.382;2022-08-19T01:44:52;101407;;;unknown;56.92
74161;BME280;62512;-46.434;168.382;2022-08-19T01:45:52;101407;;;unknown;57.17
74161;BME280;62512;-46.434;168.382;2022-08-19T01:46:52;101406;;;unknown;56.55
74161;BME280;62512;-46.434;168.382;2022-08-19T01:47:52;101409;;;unknown;56.21
74161;BME280;62512;-46.434;168.382;2022-08-19T01:48:52;101409;;;unknown;56.45
74161;BME280;62512;-46.434;168.382;2022-08-19T01:49:52;101409;;;unknown;56.49
74161;BME280;62512;-46.434;168.382;2022-08-19T01:50:52;101412;;;unknown;56.53
74161;BME280;62512;-46.434;168.382;2022-08-19T01:51:52;101408;;;unknown;56.01
74161;BME280;62512;-46.434;168.382;2022-08-19T01:52:52;101409;;;unknown;55.95
74161;BME280;62512;-46.434;168.382;2022-08-19T01:53:52;101406;;;unknown;56.34
74161;BME280;62512;-46.434;168.382;2022-08-19T01:55:52;101404;;;unknown;56.33
74161;BME280;62512;-46.434;168.382;2022-08-19T01:56:52;101401;;;unknown;56.57
74161;BME280;62512;-46.434;168.382;2022-08-19T01:57:53;101398;;;unknown;56.73
74161;BME280;62512;-46.434;168.382;2022-08-19T01:58:54;101399;;;unknown;56.93
74161;BME280;62512;-46.434;168.382;2022-08-19T02:00:52;101394;;;unknown;57.18
74161;BME280;62512;-46.434;168.382;2022-08-19T02:01:52;101395;;;unknown;57.17
74161;BME280;62512;-46.434;168.382;2022-08-19T02:02:52;101393;;;unknown;57.25
74161;BME280;62512;-46.434;168.382;2022-08-19T02:03:52;101390;;;unknown;57.31
74161;BME280;62512;-46.434;168.382;2022-08-19T02:04:52;101394;;;unknown;57.37
74161;BME280;62512;-46.434;168.382;2022-08-19T02:05:54;101394;;;unknown;57.34
74161;BME280;62512;-46.434;168.382;2022-08-19T02:06:52;101392;;;unknown;57.68
74161;BME280;62512;-46.434;168.382;2022-08-19T02:07:52;101394;;;unknown;58.04
74161;BME280;62512;-46.434;168.382;2022-08-19T02:08:52;101392;;;unknown;58.31
74161;BME280;62512;-46.434;168.382;2022-08-19T02:09:52;101393;;;unknown;58.56
74161;BME280;62512;-46.434;168.382;2022-08-19T02:10:52;101392;;;unknown;59.04
74161;BME280;62512;-46.434;168.382;2022-08-19T02:11:52;101388;;;unknown;59.14
74161;BME280;62512;-46.434;168.382;2022-08-19T02:12:52;101386;;;unknown;59.14
74161;BME280;62512;-46.434;168.382;2022-08-19T02:16:52;101374;;;unknown;59.39
74161;BME280;62512;-46.434;168.382;2022-08-19T02:17:52;101373;;;unknown;59.45
74161;BME280;62512;-46.434;168.382;2022-08-19T02:21:52;101375;;;unknown;59.67
74161;BME280;62512;-46.434;168.382;2022-08-19T02:22:52;101377;;;unknown;59.71
74161;BME280;62512;-46.434;168.382;2022-08-19T02:23:52;101380;;;unknown;59.75
74161;BME280;62512;-46.434;168.382;2022-08-19T02:24:52;101380;;;unknown;59.63
74161;BME280;62512;-46.434;168.382;2022-08-19T02:25:52;101377;;;unknown;59.41
74161;BME280;62512;-46.434;168.382;2022-08-19T02:26:52;101376;;;unknown;59.01
74161;BME280;62512;-46.434;168.382;2022-08-19T02:27:52;101373;;;unknown;58.88
74161;BME280;62512;-46.434;168.382;2022-08-19T02:28:52;101379;;;unknown;58.97
74161;BME280;62512;-46.434;168.382;2022-08-19T02:29:52;101376;;;unknown;59.02
74161;BME280;62512;-46.434;168.382;2022-08-19T02:30:52;101372;;;unknown;59.02
74161;BME280;62512;-46.434;168.382;2022-08-19T02:31:52;101372;;;unknown;59.19
74161;BME280;62512;-46.434;168.382;2022-08-19T02:32:52;101369;;;unknown;58.51
74161;BME280;62512;-46.434;168.382;2022-08-19T02:35:52;101359;;;unknown;58.20
74161;BME280;62512;-46.434;168.382;2022-08-19T02:36:52;101361;;;unknown;58.19
74161;BME280;62512;-46.434;168.382;2022-08-19T02:37:52;101357;;;unknown;58.03
74161;BME280;62512;-46.434;168.382;2022-08-19T02:38:52;101359;;;unknown;58.19
74161;BME280;62512;-46.434;168.382;2022-08-19T02:41:52;101357;;;unknown;58.75
74161;BME280;62512;-46.434;168.382;2022-08-19T02:42:52;101359;;;unknown;58.87
74161;BME280;62512;-46.434;168.382;2022-08-19T02:43:52;101357;;;unknown;58.87
74161;BME280;62512;-46.434;168.382;2022-08-19T02:44:52;101356;;;unknown;59.02
74161;BME280;62512;-46.434;168.382;2022-08-19T02:45:52;101357;;;unknown;59.29
74161;BME280;62512;-46.434;168.382;2022-08-19T02:46:52;101356;;;unknown;59.65
74161;BME280;62512;-46.434;168.382;2022-08-19T02:47:52;101359;;;unknown;59.79
74161;BME280;62512;-46.434;168.382;2022-08-19T02:49:52;101357;;;unknown;60.29
74161;BME280;62512;-46.434;168.382;2022-08-19T02:50:52;101355;;;unknown;60.46
74161;BME280;62512;-46.434;168.382;2022-08-19T02:51:52;101351;;;unknown;60.79
74161;BME280;62512;-46.434;168.382;2022-08-19T02:52:52;101349;;;unknown;60.92
74161;BME280;62512;-46.434;168.382;2022-08-19T02:53:52;101347;;;unknown;61.06
74161;BME280;62512;-46.434;168.382;2022-08-19T02:54:52;101346;;;unknown;60.96
74161;BME280;62512;-46.434;168.382;2022-08-19T02:55:52;101343;;;unknown;60.77
74161;BME280;62512;-46.434;168.382;2022-08-19T02:57:52;101343;;;unknown;60.49
74161;BME280;62512;-46.434;168.382;2022-08-19T02:58:52;101344;;;unknown;60.45
74161;BME280;62512;-46.434;168.382;2022-08-19T03:00:52;101341;;;unknown;60.51
74161;BME280;62512;-46.434;168.382;2022-08-19T03:01:52;101342;;;unknown;60.53
74161;BME280;62512;-46.434;168.382;2022-08-19T03:02:52;101340;;;unknown;60.61
74161;BME280;62512;-46.434;168.382;2022-08-19T03:03:52;101338;;;unknown;60.57
74161;BME280;62512;-46.434;168.382;2022-08-19T03:05:02;0;;;unknown;unavailable
74161;BME280;62512;-46.434;168.382;2022-08-19T03:07:58;101335;;;unknown;61.07
74161;BME280;62512;-46.434;168.382;2022-08-19T03:08:52;101335;;;unknown;61.07
74161;BME280;62512;-46.434;168.382;2022-08-19T03:09:52;101339;;;unknown;61.06
74161;BME280;62512;-46.434;168.382;2022-08-19T03:10:52;101339;;;unknown;61.10
74161;BME280;62512;-46.434;168.382;2022-08-19T03:11:52;101341;;;unknown;60.85
74161;BME280;62512;-46.434;168.382;2022-08-19T03:12:52;101343;;;unknown;61.14
74161;BME280;62512;-46.434;168.382;2022-08-19T03:13:52;101345;;;unknown;61.13
74161;BME280;62512;-46.434;168.382;2022-08-19T03:14:52;101345;;;unknown;61.29
74161;BME280;62512;-46.434;168.382;2022-08-19T03:15:52;101345;;;unknown;61.28
74161;BME280;62512;-46.434;168.382;2022-08-19T03:16:52;101348;;;unknown;61.48
74161;BME280;62512;-46.434;168.382;2022-08-19T03:17:52;101348;;;unknown;61.58
74161;BME280;62512;-46.434;168.382;2022-08-19T03:18:52;101345;;;unknown;61.53
74161;BME280;62512;-46.434;168.382;2022-08-19T03:19:52;101349;;;unknown;61.77
74161;BME280;62512;-46.434;168.382;2022-08-19T03:20:52;101345;;;unknown;61.83
74161;BME280;62512;-46.434;168.382;2022-08-19T03:21:52;101346;;;unknown;61.76
74161;BME280;62512;-46.434;168.382;2022-08-19T03:22:52;101344;;;unknown;61.73
74161;BME280;62512;-46.434;168.382;2022-08-19T03:23:54;101344;;;unknown;61.80
74161;BME280;62512;-46.434;168.382;2022-08-19T03:24:52;101344;;;unknown;62.00
74161;BME280;62512;-46.434;168.382;2022-08-19T03:25:52;101343;;;unknown;61.95
74161;BME280;62512;-46.434;168.382;2022-08-19T03:26:52;101346;;;unknown;61.75
74161;BME280;62512;-46.434;168.382;2022-08-19T03:27:52;101348;;;unknown;61.75
74161;BME280;62512;-46.434;168.382;2022-08-19T03:28:52;101350;;;unknown;61.75
74161;BME280;62512;-46.434;168.382;2022-08-19T03:29:52;101352;;;unknown;61.69
74161;BME280;62512;-46.434;168.382;2022-08-19T03:30:56;101352;;;unknown;61.72
74161;BME280;62512;-46.434;168.382;2022-08-19T03:31:52;101350;;;unknown;61.73
74161;BME280;62512;-46.434;168.382;2022-08-19T03:32:52;101352;;;unknown;61.81
74161;BME280;62512;-46.434;168.382;2022-08-19T03:33:52;101352;;;unknown;61.99
74161;BME280;62512;-46.434;168.382;2022-08-19T03:34:52;101349;;;unknown;62.25
74161;BME280;62512;-46.434;168.382;2022-08-19T03:36:09;101344;;;unknown;62.42
74161;BME280;62512;-46.434;168.382;2022-08-19T03:36:52;101341;;;unknown;62.61
74161;BME280;62512;-46.434;168.382;2022-08-19T03:37:52;101335;;;unknown;62.84
74161;BME280;62512;-46.434;168.382;2022-08-19T03:38:52;101335;;;unknown;63.04
74161;BME280;62512;-46.434;168.382;2022-08-19T03:39:52;101332;;;unknown;63.25
74161;BME280;62512;-46.434;168.382;2022-08-19T03:40:52;101333;;;unknown;63.42
74161;BME280;62512;-46.434;168.382;2022-08-19T03:41:52;101339;;;unknown;63.55
74161;BME280;62512;-46.434;168.382;2022-08-19T03:43:52;101339;;;unknown;63.89
74161;BME280;62512;-46.434;168.382;2022-08-19T03:44:52;101339;;;unknown;64.09
74161;BME280;62512;-46.434;168.382;2022-08-19T03:45:59;101335;;;unknown;64.27
74161;BME280;62512;-46.434;168.382;2022-08-19T03:47:52;101333;;;unknown;64.46
74161;BME280;62512;-46.434;168.382;2022-08-19T03:48:52;101327;;;unknown;64.58
74161;BME280;62512;-46.434;168.382;2022-08-19T03:50:52;101324;;;unknown;64.76
74161;BME280;62512;-46.434;168.382;2022-08-19T03:51:52;101321;;;unknown;64.79
74161;BME280;62512;-46.434;168.382;2022-08-19T03:52:52;101322;;;unknown;64.81
74161;BME280;62512;-46.434;168.382;2022-08-19T03:53:52;101322;;;unknown;64.92
74161;BME280;62512;-46.434;168.382;2022-08-19T03:54:52;101321;;;unknown;65.04
74161;BME280;62512;-46.434;168.382;2022-08-19T03:55:52;101318;;;unknown;65.05
74161;BME280;62512;-46.434;168.382;2022-08-19T03:56:52;101314;;;unknown;65.14
74161;BME280;62512;-46.434;168.382;2022-08-19T03:57:52;101314;;;unknown;65.20
74161;BME280;62512;-46.434;168.382;2022-08-19T03:58:52;101312;;;unknown;65.28
74161;BME280;62512;-46.434;168.382;2022-08-19T03:59:52;101310;;;unknown;65.27
74161;BME280;62512;-46.434;168.382;2022-08-19T04:00:52;101309;;;unknown;65.22
74161;BME280;62512;-46.434;168.382;2022-08-19T04:02:52;101304;;;unknown;65.32
74161;BME280;62512;-46.434;168.382;2022-08-19T04:03:52;101301;;;unknown;65.32
74161;BME280;62512;-46.434;168.382;2022-08-19T04:05:52;101300;;;unknown;64.96
74161;BME280;62512;-46.434;168.382;2022-08-19T04:06:52;101297;;;unknown;64.70
74161;BME280;62512;-46.434;168.382;2022-08-19T04:08:52;101297;;;unknown;64.79
74161;BME280;62512;-46.434;168.382;2022-08-19T04:09:52;101300;;;unknown;64.88
74161;BME280;62512;-46.434;168.382;2022-08-19T04:11:06;101295;;;unknown;65.06
74161;BME280;62512;-46.434;168.382;2022-08-19T04:11:52;101295;;;unknown;65.06
74161;BME280;62512;-46.434;168.382;2022-08-19T04:12:52;101291;;;unknown;65.08
74161;BME280;62512;-46.434;168.382;2022-08-19T04:13:52;101291;;;unknown;65.11
74161;BME280;62512;-46.434;168.382;2022-08-19T04:14:52;101290;;;unknown;65.15
74161;BME280;62512;-46.434;168.382;2022-08-19T04:15:52;101289;;;unknown;65.20
74161;BME280;62512;-46.434;168.382;2022-08-19T04:16:52;101284;;;unknown;65.26
74161;BME280;62512;-46.434;168.382;2022-08-19T04:17:52;101283;;;unknown;65.41
74161;BME280;62512;-46.434;168.382;2022-08-19T04:18:52;101283;;;unknown;65.41
74161;BME280;62512;-46.434;168.382;2022-08-19T04:19:53;101279;;;unknown;65.60
74161;BME280;62512;-46.434;168.382;2022-08-19T04:20:52;101279;;;unknown;65.75
74161;BME280;62512;-46.434;168.382;2022-08-19T04:21:53;101282;;;unknown;65.92
74161;BME280;62512;-46.434;168.382;2022-08-19T04:22:52;101282;;;unknown;65.92
74161;BME280;62512;-46.434;168.382;2022-08-19T04:23:52;101284;;;unknown;66.02
74161;BME280;62512;-46.434;168.382;2022-08-19T04:24:52;101288;;;unknown;66.11
74161;BME280;62512;-46.434;168.382;2022-08-19T04:25:52;101291;;;unknown;66.12
74161;BME280;62512;-46.434;168.382;2022-08-19T04:26:52;101291;;;unknown;66.19
74161;BME280;62512;-46.434;168.382;2022-08-19T04:27:52;101290;;;unknown;66.27
74161;BME280;62512;-46.434;168.382;2022-08-19T04:28:53;101299;;;unknown;66.47
74161;BME280;62512;-46.434;168.382;2022-08-19T04:30:52;101304;;;unknown;66.59
74161;BME280;62512;-46.434;168.382;2022-08-19T04:31:52;101305;;;unknown;66.58
74161;BME280;62512;-46.434;168.382;2022-08-19T04:32:53;101309;;;unknown;66.74
74161;BME280;62512;-46.434;168.382;2022-08-19T04:33:52;101309;;;unknown;66.74
74161;BME280;62512;-46.434;168.382;2022-08-19T04:34:52;101309;;;unknown;66.74
74161;BME280;62512;-46.434;168.382;2022-08-19T04:35:52;101305;;;unknown;66.72
74161;BME280;62512;-46.434;168.382;2022-08-19T04:36:52;101310;;;unknown;66.74
74161;BME280;62512;-46.434;168.382;2022-08-19T04:37:52;101305;;;unknown;66.80
74161;BME280;62512;-46.434;168.382;2022-08-19T04:38:53;101307;;;unknown;66.93
74161;BME280;62512;-46.434;168.382;2022-08-19T04:39:52;101307;;;unknown;66.93
74161;BME280;62512;-46.434;168.382;2022-08-19T04:40:52;101311;;;unknown;67.04
74161;BME280;62512;-46.434;168.382;2022-08-19T04:41:52;101310;;;unknown;67.11
74161;BME280;62512;-46.434;168.382;2022-08-19T04:42:52;101306;;;unknown;67.25
74161;BME280;62512;-46.434;168.382;2022-08-19T04:43:52;101306;;;unknown;67.25
74161;BME280;62512;-46.434;168.382;2022-08-19T04:44:52;101305;;;unknown;67.30
74161;BME280;62512;-46.434;168.382;2022-08-19T04:45:52;101302;;;unknown;67.40
74161;BME280;62512;-46.434;168.382;2022-08-19T04:46:52;101301;;;unknown;67.51
74161;BME280;62512;-46.434;168.382;2022-08-19T04:47:54;101298;;;unknown;67.60
74161;BME280;62512;-46.434;168.382;2022-08-19T04:48:52;101293;;;unknown;67.69
74161;BME280;62512;-46.434;168.382;2022-08-19T04:49:52;101296;;;unknown;67.77
74161;BME280;62512;-46.434;168.382;2022-08-19T04:50:52;101294;;;unknown;67.90
74161;BME280;62512;-46.434;168.382;2022-08-19T04:51:52;101292;;;unknown;68.03
74161;BME280;62512;-46.434;168.382;2022-08-19T04:52:52;101285;;;unknown;68.15
74161;BME280;62512;-46.434;168.382;2022-08-19T04:53:52;101277;;;unknown;68.22
74161;BME280;62512;-46.434;168.382;2022-08-19T04:54:52;101270;;;unknown;68.27
74161;BME280;62512;-46.434;168.382;2022-08-19T04:55:52;101274;;;unknown;68.33
74161;BME280;62512;-46.434;168.382;2022-08-19T04:56:52;101278;;;unknown;68.45
74161;BME280;62512;-46.434;168.382;2022-08-19T04:57:52;101284;;;unknown;68.73
74161;BME280;62512;-46.434;168.382;2022-08-19T04:59:53;101287;;;unknown;68.92
74161;BME280;62512;-46.434;168.382;2022-08-19T05:01:52;101289;;;unknown;69.16
74161;BME280;62512;-46.434;168.382;2022-08-19T05:02:52;101287;;;unknown;69.17
74161;BME280;62512;-46.434;168.382;2022-08-19T05:03:52;101284;;;unknown;69.25
74161;BME280;62512;-46.434;168.382;2022-08-19T05:04:55;101281;;;unknown;69.29
74161;BME280;62512;-46.434;168.382;2022-08-19T05:05:52;101281;;;unknown;69.39
74161;BME280;62512;-46.434;168.382;2022-08-19T05:06:52;101285;;;unknown;69.50
74161;BME280;62512;-46.434;168.382;2022-08-19T05:08:52;101289;;;unknown;69.71
74161;BME280;62512;-46.434;168.382;2022-08-19T05:09:52;101292;;;unknown;69.78
74161;BME280;62512;-46.434;168.382;2022-08-19T05:10:52;101296;;;unknown;69.78
74161;BME280;62512;-46.434;168.382;2022-08-19T05:12:52;101297;;;unknown;69.91
74161;BME280;62512;-46.434;168.382;2022-08-19T05:14:52;101293;;;unknown;70.02
74161;BME280;62512;-46.434;168.382;2022-08-19T05:15:54;101292;;;unknown;70.02
74161;BME280;62512;-46.434;168.382;2022-08-19T05:16:52;101290;;;unknown;70.13
74161;BME280;62512;-46.434;168.382;2022-08-19T05:17:52;101286;;;unknown;70.17
74161;BME280;62512;-46.434;168.382;2022-08-19T05:18:52;101279;;;unknown;70.18
74161;BME280;62512;-46.434;168.382;2022-08-19T05:19:52;101268;;;unknown;70.37
74161;BME280;62512;-46.434;168.382;2022-08-19T05:20:52;101268;;;unknown;70.37
74161;BME280;62512;-46.434;168.382;2022-08-19T05:21:52;101262;;;unknown;70.47
74161;BME280;62512;-46.434;168.382;2022-08-19T05:22:52;101260;;;unknown;70.56
74161;BME280;62512;-46.434;168.382;2022-08-19T05:23:52;101256;;;unknown;70.67
74161;BME280;62512;-46.434;168.382;2022-08-19T05:24:52;101256;;;unknown;70.82
74161;BME280;62512;-46.434;168.382;2022-08-19T05:25:52;101255;;;unknown;70.83
74161;BME280;62512;-46.434;168.382;2022-08-19T05:26:52;101256;;;unknown;70.82
74161;BME280;62512;-46.434;168.382;2022-08-19T05:27:52;101257;;;unknown;70.82
74161;BME280;62512;-46.434;168.382;2022-08-19T05:28:52;101253;;;unknown;70.82
74161;BME280;62512;-46.434;168.382;2022-08-19T05:29:52;101248;;;unknown;70.80
74161;BME280;62512;-46.434;168.382;2022-08-19T05:30:51;101247;;;unknown;70.84
74161;BME280;62512;-46.434;168.382;2022-08-19T05:31:52;101242;;;unknown;70.88
74161;BME280;62512;-46.434;168.382;2022-08-19T05:32:52;101238;;;unknown;70.87
74161;BME280;62512;-46.434;168.382;2022-08-19T05:33:52;101239;;;unknown;70.87
74161;BME280;62512;-46.434;168.382;2022-08-19T05:34:52;101236;;;unknown;70.87
74161;BME280;62512;-46.434;168.382;2022-08-19T05:35:52;101234;;;unknown;70.91
74161;BME280;62512;-46.434;168.382;2022-08-19T05:36:52;101229;;;unknown;70.94
74161;BME280;62512;-46.434;168.382;2022-08-19T05:37:52;101227;;;unknown;70.95
74161;BME280;62512;-46.434;168.382;2022-08-19T05:38:52;101226;;;unknown;70.92
74161;BME280;62512;-46.434;168.382;2022-08-19T05:39:52;101222;;;unknown;70.77
74161;BME280;62512;-46.434;168.382;2022-08-19T05:40:52;101222;;;unknown;70.77
74161;BME280;62512;-46.434;168.382;2022-08-19T05:41:53;101216;;;unknown;70.73
74161;BME280;62512;-46.434;168.382;2022-08-19T05:42:52;101214;;;unknown;70.71